Time;durP1;ratioP1;P1;durP2;ratioP2;P2;SDS_P1;SDS_P2;PMS_P1;PMS_P2;Temp;Humidity;BMP_temperature;BMP_pressure;BME280_temperature;BME280_humidity;BME280_pressure;Samples;Min_cycle;Max_cycle;Signal;HPM_P1;HPM_P2
2023/12/29 00:00:25;;;;;;;3.67;1.00;;;;;;;17.37;56.10;96821.50;10412377;28;20037;-29
2023/12/29 00:05:26;;;;;;;5.75;1.08;;;;;;;17.37;55.50;96809.72;10407113;28;20041;-29
2023/12/29 00:10:27;;;;;;;1.08;0.85;;;;;;;17.36;55.94;96810.56;10395677;28;20518;-30
2023/12/29 00:15:27;;;;;;;2.17;0.60;;;;;;;17.41;55.80;96818.19;10399786;28;20029;-30
2023/12/29 00:20:28;;;;;;;2.00;0.70;;;;;;;17.38;55.86;96803.81;10396326;28;20037;-30
2023/12/29 00:25:29;;;;;;;0.88;0.52;;;;;;;17.38;55.84;96802.94;10403447;28;20416;-32
2023/12/29 00:30:29;;;;;;;3.27;0.60;;;;;;;17.39;55.82;96814.75;10400433;28;20048;-30
2023/12/29 00:35:29;;;;;;;2.22;0.70;;;;;;;17.37;55.88;96798.72;10422553;28;20041;-30
2023/12/29 00:40:30;;;;;;;2.70;0.80;;;;;;;17.33;55.16;96784.34;10408918;28;20478;-30
2023/12/29 00:45:32;;;;;;;2.50;0.77;;;;;;;17.37;55.92;96801.25;10404309;28;20268;-30
2023/12/29 00:50:33;;;;;;;3.13;0.63;;;;;;;17.37;55.63;96791.13;10401587;28;20059;-30
2023/12/29 00:55:33;;;;;;;2.43;0.73;;;;;;;17.35;55.86;96792.78;10412435;28;20072;-30
2023/12/29 01:00:33;;;;;;;4.33;0.83;;;;;;;17.35;55.75;96787.72;10410871;28;20037;-29
2023/12/29 01:05:35;;;;;;;2.33;0.60;;;;;;;17.38;55.93;96798.75;10413508;28;20124;-29
2023/12/29 01:10:35;;;;;;;2.87;0.57;;;;;;;17.31;55.68;96796.16;10405671;28;20090;-29
2023/12/29 01:15:35;;;;;;;1.73;0.57;;;;;;;17.36;55.72;96819.81;10410498;28;20041;-30
2023/12/29 01:20:36;;;;;;;2.53;0.93;;;;;;;17.31;55.82;96816.41;10416249;28;20043;-29
2023/12/29 01:25:36;;;;;;;1.43;0.67;;;;;;;17.36;55.55;96827.41;10410918;28;20423;-29
2023/12/29 01:30:36;;;;;;;2.23;0.67;;;;;;;17.31;55.82;96826.53;10424156;28;20104;-30
2023/12/29 01:35:38;;;;;;;3.35;0.80;;;;;;;17.34;56.11;96827.34;10410602;28;20296;-29
2023/12/29 01:40:43;;;;;;;3.13;0.55;;;;;;;17.33;56.10;96819.78;10404236;28;20041;-30
2023/12/29 01:45:44;;;;;;;2.17;0.80;;;;;;;17.33;56.17;96827.38;10412448;28;20048;-30
2023/12/29 01:50:45;;;;;;;2.00;0.90;;;;;;;17.37;56.00;96821.50;10409192;28;20048;-30
2023/12/29 01:55:45;;;;;;;1.27;0.60;;;;;;;17.35;56.00;96811.38;10405371;28;20033;-30
2023/12/29 02:00:46;;;;;;;2.88;0.93;;;;;;;17.34;55.98;96818.94;10407016;28;20033;-30
2023/12/29 02:05:48;;;;;;;2.20;0.85;;;;;;;17.35;55.86;96798.72;10402298;28;20526;-30
2023/12/29 02:10:49;;;;;;;0.70;0.47;;;;;;;17.24;56.04;96780.06;10409320;28;20126;-29
2023/12/29 02:15:54;;;;;;;2.28;0.65;;;;;;;17.31;56.04;96786.03;10416569;28;20164;-29
2023/12/29 02:20:55;;;;;;;1.92;0.80;;;;;;;17.29;56.01;96785.16;10403732;28;20043;-29
2023/12/29 02:26:02;;;;;;;3.10;0.60;;;;;;;17.32;55.97;96787.72;10393333;28;20055;-29
2023/12/29 02:31:13;;;;;;;0.63;0.57;;;;;;;17.30;56.18;96761.53;10402770;28;20049;-30
2023/12/29 02:36:16;;;;;;;1.45;0.85;;;;;;;17.31;55.95;96791.09;10408141;28;20033;-29
2023/12/29 02:41:16;;;;;;;2.70;0.98;;;;;;;17.31;55.75;96789.41;10398076;28;20056;-30
2023/12/29 02:46:17;;;;;;;1.57;0.77;;;;;;;17.33;56.18;96779.28;10402359;28;20420;-30
2023/12/29 02:51:17;;;;;;;2.67;1.00;;;;;;;17.31;55.55;96756.50;10395312;28;20281;-31
2023/12/29 02:56:22;;;;;;;5.65;0.80;;;;;;;17.31;56.47;96756.50;10403193;28;20029;-30
2023/12/29 03:01:22;;;;;;;3.47;0.77;;;;;;;17.31;56.36;96758.22;10396977;28;20030;-29
2023/12/29 03:06:22;;;;;;;3.33;1.43;;;;;;;17.30;56.36;96759.88;10410336;28;20045;-29
2023/12/29 03:11:23;;;;;;;3.78;1.20;;;;;;;17.30;56.38;96759.00;10402722;28;20292;-29
2023/12/29 03:16:23;;;;;;;1.40;0.73;;;;;;;17.32;56.12;96757.38;10395208;28;20299;-29
2023/12/29 03:21:24;;;;;;;5.68;0.98;;;;;;;17.30;56.07;96757.34;10395626;28;20030;-29
2023/12/29 03:26:25;;;;;;;5.33;0.90;;;;;;;17.32;56.12;96752.31;10403606;28;20526;-30
2023/12/29 03:31:25;;;;;;;2.87;0.80;;;;;;;17.28;56.23;96745.50;10403338;28;20025;-29
2023/12/29 03:36:25;;;;;;;4.07;0.80;;;;;;;17.32;56.12;96752.31;10403137;28;20417;-30
2023/12/29 03:41:26;;;;;;;2.67;1.07;;;;;;;17.28;56.14;96748.91;10395795;28;20415;-31
2023/12/29 03:46:26;;;;;;;2.97;1.20;;;;;;;17.32;56.30;96747.25;10404926;28;20291;-30
2023/12/29 03:51:26;;;;;;;2.10;0.60;;;;;;;17.31;56.23;96748.09;10410328;28;20036;-30
2023/12/29 03:56:27;;;;;;;6.03;1.30;;;;;;;17.31;56.37;96745.56;10402781;28;20037;-30
2023/12/29 04:01:27;;;;;;;4.03;0.87;;;;;;;17.32;56.34;96717.69;10408971;28;20578;-31
2023/12/29 04:06:28;;;;;;;3.33;0.80;;;;;;;17.28;56.40;96727.81;10400692;28;20029;-29
2023/12/29 04:11:28;;;;;;;4.23;0.80;;;;;;;17.31;56.03;96725.31;10399490;28;20033;-30
2023/12/29 04:16:29;;;;;;;1.42;0.60;;;;;;;17.29;56.51;96726.97;10401215;28;20041;-30
2023/12/29 04:21:29;;;;;;;1.63;0.90;;;;;;;17.32;55.95;96732.88;10400548;28;20264;-30
2023/12/29 04:26:34;;;;;;;6.80;0.80;;;;;;;17.29;56.23;96747.19;10398116;28;20033;-29
2023/12/29 04:31:35;;;;;;;2.47;1.30;;;;;;;17.31;56.22;96755.69;10395923;28;20532;-30
2023/12/29 04:36:35;;;;;;;6.65;1.83;;;;;;;17.31;56.33;96750.63;10403133;28;20033;-29
2023/12/29 04:41:35;;;;;;;2.60;0.67;;;;;;;17.34;56.03;96750.63;10393876;28;20033;-30
2023/12/29 04:46:36;;;;;;;2.43;0.87;;;;;;;17.35;56.05;96754.84;10400472;28;20145;-29
2023/12/29 04:51:36;;;;;;;2.57;0.60;;;;;;;17.36;55.91;96739.69;10397375;28;20040;-29
2023/12/29 04:56:37;;;;;;;2.13;0.85;;;;;;;17.37;55.37;96736.34;10396729;28;20034;-30
2023/12/29 05:01:37;;;;;;;4.00;1.10;;;;;;;17.40;55.80;96730.44;10401416;28;20040;-29
2023/12/29 05:06:37;;;;;;;4.87;0.97;;;;;;;17.42;55.92;96741.41;10400825;28;20041;-30
2023/12/29 05:11:38;;;;;;;1.20;0.67;;;;;;;17.41;55.64;96732.13;10392286;28;20647;-30
2023/12/29 05:16:40;;;;;;;3.25;0.68;;;;;;;17.41;55.96;96732.13;10399032;28;20037;-30
2023/12/29 05:21:42;;;;;;;3.20;0.73;;;;;;;17.36;56.15;96722.00;10410680;28;20025;-30
2023/12/29 05:26:42;;;;;;;1.27;0.80;;;;;;;17.41;55.71;96732.13;10405377;28;20499;-29
2023/12/29 05:31:43;;;;;;;3.30;0.97;;;;;;;17.43;55.86;96741.44;10411793;28;20044;-30
2023/12/29 05:36:43;;;;;;;3.87;1.03;;;;;;;17.42;55.81;96739.72;10406499;28;20037;-31
2023/12/29 05:41:43;;;;;;;3.53;0.83;;;;;;;17.45;55.77;96721.16;10403665;28;20292;-29
2023/12/29 05:46:47;;;;;;;3.33;0.83;;;;;;;17.44;55.61;96719.47;10410781;28;20597;-30
2023/12/29 05:51:48;;;;;;;1.55;0.73;;;;;;;17.46;55.42;96721.19;10409323;28;20029;-29
2023/12/29 05:56:48;;;;;;;1.43;0.70;;;;;;;17.45;55.89;96731.28;10410965;28;20033;-30
2023/12/29 06:01:48;;;;;;;2.20;1.17;;;;;;;17.44;55.90;96727.06;10403875;28;20125;-29
2023/12/29 06:06:51;;;;;;;4.23;1.60;;;;;;;17.46;55.57;96732.97;10445215;28;20455;-30
2023/12/29 06:11:52;;;;;;;1.30;0.70;;;;;;;17.29;56.10;96716.84;10403984;28;20053;-29
2023/12/29 06:16:53;;;;;;;4.45;0.82;;;;;;;17.45;55.75;96734.69;10405126;28;20496;-29
2023/12/29 06:21:53;;;;;;;1.90;0.50;;;;;;;17.39;55.81;96748.97;10409232;28;20602;-30
2023/12/29 06:26:54;;;;;;;1.43;0.50;;;;;;;17.38;55.84;96742.22;10404665;28;20306;-30
2023/12/29 06:31:54;;;;;;;1.03;0.57;;;;;;;17.31;56.00;96740.50;10401077;28;20033;-30
2023/12/29 06:36:54;;;;;;;1.87;0.90;;;;;;;17.34;56.14;96741.31;10410113;28;20044;-30
2023/12/29 06:41:55;;;;;;;0.80;0.70;;;;;;;17.33;55.86;96754.81;10401494;28;20303;-29
2023/12/29 06:46:55;;;;;;;2.83;1.17;;;;;;;17.34;55.75;96745.56;10401479;28;20040;-29
2023/12/29 06:51:58;;;;;;;1.20;0.63;;;;;;;17.32;56.06;96762.41;10403450;28;20037;-29
2023/12/29 06:56:58;;;;;;;3.08;0.60;;;;;;;17.32;55.81;96773.38;10396440;28;20424;-29
2023/12/29 07:01:58;;;;;;;1.70;0.67;;;;;;;17.30;55.91;96769.13;10407563;28;20045;-29
2023/12/29 07:07:00;;;;;;;2.00;0.70;;;;;;;17.26;56.19;96791.03;10401502;28;20048;-30
2023/12/29 07:12:01;;;;;;;0.65;0.60;;;;;;;17.27;56.10;96774.19;10395188;28;20801;-30
2023/12/29 07:17:04;;;;;;;1.53;0.90;;;;;;;17.25;55.97;96763.22;10395451;28;20034;-29
2023/12/29 07:22:08;;;;;;;0.93;0.40;;;;;;;17.25;55.94;96770.81;10400819;28;20083;-31
2023/12/29 07:27:08;;;;;;;1.05;0.47;;;;;;;17.26;55.94;96767.44;10391743;28;20491;-29
2023/12/29 07:32:08;;;;;;;1.47;0.53;;;;;;;17.26;55.71;96758.16;10403589;28;20120;-30
2023/12/29 07:37:09;;;;;;;2.27;1.00;;;;;;;17.26;55.85;96759.84;10400501;28;20033;-30
2023/12/29 07:42:10;;;;;;;0.97;0.50;;;;;;;17.24;56.00;96759.00;10407907;28;20033;-30
2023/12/29 07:47:12;;;;;;;1.58;0.52;;;;;;;17.25;55.86;96763.22;10401275;28;20037;-30
2023/12/29 07:52:12;;;;;;;1.60;0.50;;;;;;;17.24;55.82;96762.38;10405271;28;20087;-29
2023/12/29 07:57:12;;;;;;;3.70;1.10;;;;;;;17.30;55.11;96756.47;10403491;28;20116;-29
2023/12/29 08:02:12;;;;;;;1.37;0.63;;;;;;;17.38;54.83;96758.25;10407671;28;20044;-29
2023/12/29 08:07:13;;;;;;;1.70;0.50;;;;;;;17.36;54.92;96749.81;10407292;28;20041;-30
2023/12/29 08:12:13;;;;;;;4.07;1.47;;;;;;;17.43;54.31;96766.75;10399325;28;20041;-35
2023/12/29 08:17:14;;;;;;;1.20;0.80;;;;;;;17.43;54.68;96761.66;10402321;28;20055;-30
2023/12/29 08:22:14;;;;;;;6.37;0.60;;;;;;;17.42;54.91;96772.59;10410265;28;20033;-29
2023/12/29 08:27:22;;;;;;;4.17;1.63;;;;;;;17.42;54.61;96765.00;10404215;28;20188;-30
2023/12/29 08:32:23;;;;;;;5.00;1.20;;;;;;;17.43;55.38;96786.13;10394548;28;20526;-29
2023/12/29 08:37:23;;;;;;;2.47;1.40;;;;;;;17.43;55.35;96788.66;10395741;28;20459;-30
2023/12/29 08:42:24;;;;;;;5.20;1.33;;;;;;;17.43;55.80;96786.97;10403778;28;20318;-29
2023/12/29 08:47:24;;;;;;;7.53;1.73;;;;;;;17.41;55.79;96786.09;10410728;28;20037;-29
2023/12/29 08:52:24;;;;;;;2.77;1.40;;;;;;;17.43;55.66;96786.97;10403046;28;20033;-29
2023/12/29 08:57:25;;;;;;;2.77;1.63;;;;;;;17.38;55.74;96792.81;10407415;28;20188;-29
2023/12/29 09:02:25;;;;;;;3.17;1.60;;;;;;;17.44;55.55;96797.94;10406341;28;20288;-30
2023/12/29 09:07:28;;;;;;;3.37;1.93;;;;;;;17.45;55.48;96797.09;10415576;28;20274;-29
2023/12/29 09:12:28;;;;;;;6.72;3.03;;;;;;;17.41;55.33;96788.63;10406067;28;20052;-30
2023/12/29 09:17:29;;;;;;;5.38;2.00;;;;;;;17.46;55.49;96788.66;10405994;28;20041;-30
2023/12/29 09:22:29;;;;;;;2.30;1.60;;;;;;;17.46;55.39;96781.06;10412449;28;20419;-30
2023/12/29 09:27:30;;;;;;;4.07;1.80;;;;;;;17.40;55.43;96776.00;10407228;28;20025;-31
2023/12/29 09:32:30;;;;;;;20.77;2.92;;;;;;;17.44;55.89;96787.81;10406606;28;20411;-30
2023/12/29 09:37:31;;;;;;;42.83;3.88;;;;;;;17.51;55.57;96802.19;10409730;28;20505;-30
2023/12/29 09:42:32;;;;;;;14.50;2.30;;;;;;;17.50;54.89;96788.69;10403030;28;20419;-29
2023/12/29 09:47:35;;;;;;;8.02;2.63;;;;;;;17.51;55.28;96792.06;10401638;28;20021;-31
2023/12/29 09:52:38;;;;;;;4.40;1.88;;;;;;;17.51;55.20;96794.59;10409019;28;20063;-30
2023/12/29 09:57:39;;;;;;;13.68;2.30;;;;;;;17.50;55.11;96798.81;10398970;28;20340;-29
2023/12/29 10:02:40;;;;;;;13.30;3.05;;;;;;;17.53;55.51;96805.56;10407457;28;20138;-30
2023/12/29 10:07:43;;;;;;;9.05;3.80;;;;;;;17.41;55.49;96795.41;10409094;28;20107;-29
2023/12/29 10:12:47;;;;;;;11.80;4.20;;;;;;;17.51;55.01;96784.47;10399964;28;20059;-30
2023/12/29 10:18:24;;;;;;;10.02;4.15;;;;;;;17.52;55.30;96791.22;10405525;28;20035;-30
2023/12/29 10:23:35;;;;;;;12.33;4.10;;;;;;;17.48;55.35;96789.53;10399990;28;20072;-29
2023/12/29 10:28:35;;;;;;;11.05;4.90;;;;;;;17.47;56.39;96762.50;10408677;28;20069;-29
2023/12/29 10:33:36;;;;;;;9.90;4.78;;;;;;;17.47;56.38;96757.44;10406950;28;20124;-30
2023/12/29 10:38:41;;;;;;;16.03;6.07;;;;;;;17.49;55.13;96773.50;10402430;28;20041;-30
2023/12/29 10:43:47;;;;;;;12.18;5.60;;;;;;;17.54;55.52;96775.22;10411062;28;20032;-30
2023/12/29 10:48:48;;;;;;;8.10;5.00;;;;;;;17.57;55.06;96767.63;10400250;28;20488;-29
2023/12/29 10:53:55;;;;;;;9.60;5.35;;;;;;;17.58;55.38;96763.41;10399055;28;20057;-30
2023/12/29 10:59:03;;;;;;;7.43;4.53;;;;;;;17.58;55.11;96759.19;10404441;28;20029;-30
2023/12/29 11:04:06;;;;;;;9.40;4.30;;;;;;;17.60;55.21;96749.06;10405174;28;20386;-30
2023/12/29 11:09:06;;;;;;;6.97;3.83;;;;;;;17.61;55.02;96744.03;10393877;28;20069;-29
2023/12/29 11:14:10;;;;;;;6.70;3.93;;;;;;;17.60;54.63;96738.94;10406350;28;20129;-31
2023/12/29 11:19:12;;;;;;;7.93;4.25;;;;;;;17.44;55.22;96712.75;10404143;28;20133;-29
2023/12/29 11:24:12;;;;;;;6.75;3.63;;;;;;;17.53;55.02;96732.16;10401691;28;20060;-30
2023/12/29 11:29:14;;;;;;;11.77;4.32;;;;;;;17.55;56.37;96731.34;10406832;28;20033;-29
2023/12/29 11:34:28;;;;;;;6.22;3.33;;;;;;;17.59;55.08;96727.13;10402169;28;20029;-29
2023/12/29 11:39:45;;;;;;;11.48;4.32;;;;;;;17.60;55.51;96728.81;10395133;28;20032;-29
2023/12/29 11:44:48;;;;;;;10.40;4.25;;;;;;;17.57;55.08;96723.75;10404999;28;20088;-29
2023/12/29 11:50:01;;;;;;;7.53;3.08;;;;;;;17.57;55.44;96711.94;10407143;28;20040;-29
2023/12/29 11:55:09;;;;;;;7.18;3.63;;;;;;;17.58;55.30;96720.38;10395903;28;20036;-30
2023/12/29 12:00:10;;;;;;;9.38;3.70;;;;;;;17.59;55.36;96706.88;10406435;28;20541;-29
2023/12/29 12:05:47;;;;;;;5.35;3.00;;;;;;;17.53;55.29;96701.78;10402383;28;20484;-29
2023/12/29 12:10:47;;;;;;;6.57;3.20;;;;;;;17.53;55.07;96701.78;10396128;28;20037;-30
2023/12/29 12:15:47;;;;;;;5.13;3.00;;;;;;;17.54;55.41;96690.81;10405533;28;20494;-30
2023/12/29 12:20:50;;;;;;;6.23;3.20;;;;;;;17.55;55.76;96689.97;10395500;28;20035;-30
2023/12/29 12:25:59;;;;;;;5.13;3.10;;;;;;;17.54;55.52;96678.16;10399067;28;20041;-31
2023/12/29 12:31:07;;;;;;;6.00;2.72;;;;;;;17.57;55.50;96680.72;10412357;28;20438;-29
2023/12/29 12:36:09;;;;;;;6.03;3.05;;;;;;;17.50;55.89;96666.34;10411832;28;20037;-30
2023/12/29 12:41:11;;;;;;;9.10;3.35;;;;;;;17.56;56.46;96669.75;10411681;28;20034;-31
2023/12/29 12:46:14;;;;;;;8.57;3.05;;;;;;;17.56;57.22;96676.50;10410882;28;20041;-30
2023/12/29 12:51:15;;;;;;;8.50;3.72;;;;;;;17.55;55.75;96674.78;10409181;28;20091;-29
2023/12/29 12:56:17;;;;;;;8.73;3.00;;;;;;;17.50;55.61;96667.19;10403525;28;20091;-30
2023/12/29 13:01:17;;;;;;;5.53;2.95;;;;;;;17.51;55.19;96655.38;10406242;28;20029;-30
2023/12/29 13:06:19;;;;;;;10.17;3.37;;;;;;;17.49;56.61;96650.31;10404725;28;20033;-30
2023/12/29 13:11:25;;;;;;;6.38;2.50;;;;;;;17.53;56.11;96652.03;10405072;28;20283;-30
2023/12/29 13:16:32;;;;;;;5.75;2.35;;;;;;;17.54;55.94;96657.91;10410531;28;20037;-30
2023/12/29 13:21:33;;;;;;;7.43;2.72;;;;;;;17.55;56.59;96654.53;10411871;28;20514;-30
2023/12/29 13:26:33;;;;;;;6.97;2.70;;;;;;;17.56;57.56;96656.25;10405695;28;20040;-30
2023/12/29 13:31:34;;;;;;;6.28;2.55;;;;;;;17.56;56.47;96653.72;10410433;28;20774;-30
2023/12/29 13:36:42;;;;;;;4.57;2.30;;;;;;;17.55;56.93;96644.41;10403102;28;20045;-30
2023/12/29 13:41:44;;;;;;;5.78;2.30;;;;;;;17.57;56.50;96650.34;10395776;28;20033;-32
2023/12/29 13:46:44;;;;;;;3.47;2.17;;;;;;;17.58;56.72;96664.69;10412819;28;20033;-30
2023/12/29 13:51:45;;;;;;;6.35;3.10;;;;;;;17.54;57.46;96660.44;10403520;28;20025;-30
2023/12/29 13:56:53;;;;;;;4.13;2.20;;;;;;;17.55;57.66;96659.59;10402077;28;20506;-30
2023/12/29 14:01:53;;;;;;;5.70;2.75;;;;;;;17.51;56.96;96658.75;10410362;28;20302;-30
2023/12/29 14:07:02;;;;;;;8.57;3.20;;;;;;;17.52;58.30;96655.41;10406257;28;20455;-30
2023/12/29 14:12:03;;;;;;;5.18;2.78;;;;;;;17.52;58.17;96654.53;10402488;28;20567;-30
2023/12/29 14:17:03;;;;;;;5.20;2.17;;;;;;;17.55;58.06;96659.59;10409524;28;20033;-29
2023/12/29 14:22:04;;;;;;;3.75;2.50;;;;;;;17.54;57.57;96657.91;10401030;28;20041;-29
2023/12/29 14:27:04;;;;;;;4.75;2.15;;;;;;;17.52;57.22;96665.53;10407082;28;20040;-30
2023/12/29 14:32:05;;;;;;;6.00;2.53;;;;;;;17.52;57.88;96654.53;10401576;28;20044;-31
2023/12/29 14:37:05;;;;;;;3.80;2.17;;;;;;;17.52;57.91;96649.47;10409542;28;20060;-29
2023/12/29 14:42:08;;;;;;;4.50;2.20;;;;;;;17.51;57.93;96668.03;10396752;28;20041;-33
2023/12/29 14:47:08;;;;;;;5.70;2.47;;;;;;;17.50;58.18;96661.28;10403822;28;20030;-30
2023/12/29 14:52:09;;;;;;;4.13;2.10;;;;;;;17.46;58.65;96651.97;10406975;28;20037;-30
2023/12/29 14:57:09;;;;;;;7.40;3.00;;;;;;;17.47;58.42;96656.19;10399869;28;20037;-30
2023/12/29 15:02:09;;;;;;;5.23;2.73;;;;;;;17.44;58.14;96646.09;10407034;28;20307;-30
2023/12/29 15:07:10;;;;;;;4.60;1.97;;;;;;;17.43;58.81;96650.31;10403746;28;20617;-30
2023/12/29 15:12:12;;;;;;;3.87;2.00;;;;;;;17.47;58.22;96651.13;10398583;28;20288;-29
2023/12/29 15:17:12;;;;;;;3.42;1.70;;;;;;;17.46;58.32;96641.88;10399307;28;20116;-29
2023/12/29 15:22:13;;;;;;;3.47;2.43;;;;;;;17.40;58.82;96640.16;10405424;28;20029;-30
2023/12/29 15:27:13;;;;;;;2.50;1.80;;;;;;;17.44;58.66;96651.16;10401151;28;20033;-30
2023/12/29 15:32:14;;;;;;;3.97;1.90;;;;;;;17.45;58.55;96653.69;10404459;28;20057;-31
2023/12/29 15:37:14;;;;;;;4.28;1.80;;;;;;;17.38;58.55;96651.13;10405461;28;20037;-30
2023/12/29 15:42:15;;;;;;;3.22;1.70;;;;;;;17.45;58.22;96673.06;10403333;28;20033;-30
2023/12/29 15:47:15;;;;;;;3.90;1.58;;;;;;;17.46;58.25;96667.16;10404442;28;20033;-30
2023/12/29 15:52:16;;;;;;;2.83;1.58;;;;;;;17.48;58.10;96652.84;10398869;28;20041;-30
2023/12/29 15:57:16;;;;;;;2.47;1.77;;;;;;;17.50;58.13;96643.56;10396277;28;20419;-30
2023/12/29 16:02:17;;;;;;;2.00;1.40;;;;;;;17.53;57.18;96646.97;10418409;28;20078;-29
2023/12/29 16:07:17;;;;;;;2.88;1.50;;;;;;;17.50;57.00;96630.91;10411711;28;20055;-30
2023/12/29 16:12:18;;;;;;;3.77;2.40;;;;;;;17.56;57.44;96656.25;10396601;28;20483;-30
2023/12/29 16:17:18;;;;;;;3.07;1.77;;;;;;;17.56;57.64;96654.56;10396092;28;20033;-30
2023/12/29 16:22:18;;;;;;;5.03;1.60;;;;;;;17.56;57.49;96644.44;10414055;28;20034;-30
2023/12/29 16:27:19;;;;;;;4.03;1.40;;;;;;;17.48;57.76;96632.63;10401377;28;20488;-30
2023/12/29 16:32:26;;;;;;;4.95;1.60;;;;;;;17.55;57.64;96659.59;10409828;28;20537;-30
2023/12/29 16:37:27;;;;;;;3.15;1.92;;;;;;;17.53;58.70;96635.97;10408691;28;20083;-30
2023/12/29 16:42:28;;;;;;;5.82;1.67;;;;;;;17.55;57.20;96629.22;10394144;28;20068;-30
2023/12/29 16:47:28;;;;;;;2.90;1.60;;;;;;;17.52;57.49;96630.09;10380416;28;20057;-30
2023/12/29 16:52:28;;;;;;;4.93;1.70;;;;;;;17.57;58.11;96638.53;10392646;28;20434;-30
2023/12/29 16:57:29;;;;;;;6.37;1.83;;;;;;;17.58;57.40;96639.38;10396259;28;20055;-30
2023/12/29 17:02:30;;;;;;;4.57;1.50;;;;;;;17.58;57.80;96652.03;10396570;28;20419;-29
2023/12/29 17:07:30;;;;;;;3.43;1.67;;;;;;;17.56;57.75;96641.06;10409219;28;20041;-29
2023/12/29 17:12:30;;;;;;;2.77;1.83;;;;;;;17.58;57.49;96637.69;10394303;28;20165;-31
2023/12/29 17:17:31;;;;;;;2.80;1.30;;;;;;;17.58;57.54;96654.56;10405823;28;20022;-30
2023/12/29 17:22:31;;;;;;;3.63;1.40;;;;;;;17.59;57.22;96651.19;10409234;28;20034;-31
2023/12/29 17:27:31;;;;;;;2.03;1.40;;;;;;;17.59;57.18;96658.78;10405042;28;20307;-29
2023/12/29 17:32:32;;;;;;;2.63;1.30;;;;;;;17.57;57.39;96660.47;10417866;28;20142;-30
2023/12/29 17:37:32;;;;;;;3.23;1.50;;;;;;;17.55;57.59;96663.00;10422021;28;20029;-29
2023/12/29 17:42:33;;;;;;;2.97;1.65;;;;;;;17.55;57.75;96669.72;10425792;28;20478;-31
2023/12/29 17:47:33;;;;;;;2.33;1.57;;;;;;;17.56;57.17;96668.91;10407381;28;20033;-29
2023/12/29 17:52:33;;;;;;;2.10;1.40;;;;;;;17.53;58.04;96669.75;10406138;28;20037;-30
2023/12/29 17:57:36;;;;;;;2.87;1.60;;;;;;;17.54;57.85;96670.56;10410575;28;20362;-31
2023/12/29 18:02:39;;;;;;;2.20;1.30;;;;;;;17.51;57.87;96673.94;10410866;28;20708;-31
2023/12/29 18:07:39;;;;;;;1.40;1.05;;;;;;;17.50;57.91;96684.06;10403739;28;20044;-29
2023/12/29 18:12:40;;;;;;;2.63;1.07;;;;;;;17.51;57.70;96678.16;10407650;28;20048;-31
2023/12/29 18:17:41;;;;;;;1.70;1.35;;;;;;;17.51;57.92;96683.22;10403751;28;20296;-30
2023/12/29 18:22:41;;;;;;;2.33;1.15;;;;;;;17.50;57.77;96692.50;10403905;28;20044;-30
2023/12/29 18:27:41;;;;;;;1.47;1.17;;;;;;;17.50;57.66;96701.78;10405801;28;20048;-29
2023/12/29 18:32:42;;;;;;;1.57;1.27;;;;;;;17.45;57.24;96698.38;10418124;28;20107;-30
2023/12/29 18:37:46;;;;;;;1.50;1.20;;;;;;;17.49;57.22;96695.03;10414188;28;20047;-31
2023/12/29 18:42:46;;;;;;;1.83;1.30;;;;;;;17.47;57.17;96714.41;10406963;28;20040;-30
2023/12/29 18:47:46;;;;;;;1.67;1.10;;;;;;;17.46;57.49;96710.19;10409188;28;20037;-29
2023/12/29 18:52:47;;;;;;;2.27;1.23;;;;;;;17.47;57.31;96702.63;10418077;28;20450;-30
2023/12/29 18:57:47;;;;;;;1.48;1.38;;;;;;;17.49;57.50;96712.75;10409507;28;20429;-30
2023/12/29 19:02:48;;;;;;;3.17;1.27;;;;;;;17.46;57.35;96713.59;10412854;28;20029;-29
2023/12/29 19:07:48;;;;;;;2.40;1.20;;;;;;;17.47;57.19;96722.00;10402690;28;20022;-30
2023/12/29 19:12:48;;;;;;;4.23;1.57;;;;;;;17.44;57.66;96716.94;10416686;28;20033;-30
2023/12/29 19:17:49;;;;;;;0.93;0.87;;;;;;;17.43;57.29;96711.06;10406359;28;20074;-30
2023/12/29 19:22:49;;;;;;;1.10;1.00;;;;;;;17.45;57.47;96723.69;10405170;28;20491;-29
2023/12/29 19:27:50;;;;;;;2.57;1.40;;;;;;;17.46;57.09;96711.06;10410827;28;20036;-30
2023/12/29 19:32:50;;;;;;;1.25;0.95;;;;;;;17.45;57.13;96703.44;10398647;28;20120;-31
2023/12/29 19:37:51;;;;;;;1.05;0.95;;;;;;;17.44;57.24;96692.50;10395653;28;20078;-30
2023/12/29 19:42:51;;;;;;;1.13;0.93;;;;;;;17.44;56.97;96696.69;10412340;28;20038;-30
2023/12/29 19:47:51;;;;;;;1.23;1.10;;;;;;;17.43;57.29;96689.94;10394959;28;20141;-33
2023/12/29 19:52:52;;;;;;;1.40;1.00;;;;;;;17.44;57.08;96671.38;10409496;28;20040;-31
2023/12/29 19:57:52;;;;;;;0.98;0.88;;;;;;;17.49;56.56;96674.78;10402132;28;20138;-30
2023/12/29 20:02:53;;;;;;;1.10;1.00;;;;;;;17.45;56.87;96679.00;10408369;28;20026;-30
2023/12/29 20:07:56;;;;;;;1.20;0.98;;;;;;;17.45;56.86;96684.06;10390099;28;20025;-30
2023/12/29 20:12:56;;;;;;;1.77;1.33;;;;;;;17.43;56.96;96687.41;10402012;28;20090;-29
2023/12/29 20:17:57;;;;;;;1.60;1.10;;;;;;;17.35;56.68;96668.78;10402408;28;20492;-29
2023/12/29 20:22:58;;;;;;;1.10;1.00;;;;;;;17.45;56.75;96693.31;10394858;28;20049;-30
2023/12/29 20:28:00;;;;;;;1.50;1.40;;;;;;;17.42;56.84;96685.72;10397198;28;20064;-29
2023/12/29 20:33:03;;;;;;;1.50;1.05;;;;;;;17.41;56.50;96684.03;10403759;28;20045;-29
2023/12/29 20:38:03;;;;;;;2.38;1.20;;;;;;;17.35;56.34;96686.50;10396615;28;20509;-30
2023/12/29 20:43:04;;;;;;;1.47;1.07;;;;;;;17.39;56.72;96694.16;10394839;28;20043;-29
2023/12/29 20:48:04;;;;;;;1.13;0.80;;;;;;;17.40;57.17;96700.06;10398574;28;20056;-30
2023/12/29 20:53:05;;;;;;;0.90;0.77;;;;;;;17.41;57.02;96701.75;10405063;28;20049;-30
2023/12/29 20:58:05;;;;;;;1.30;1.10;;;;;;;17.42;57.01;96705.97;10402668;28;20114;-30
2023/12/29 21:03:08;;;;;;;1.00;0.77;;;;;;;17.43;56.57;96695.00;10409672;28;20547;-29
2023/12/29 21:08:09;;;;;;;1.67;1.10;;;;;;;17.40;56.72;96693.31;10398189;28;20033;-29
2023/12/29 21:13:09;;;;;;;1.85;1.10;;;;;;;17.41;56.83;96681.50;10405751;28;20033;-30
2023/12/29 21:18:10;;;;;;;1.23;0.93;;;;;;;17.42;56.89;96684.03;10413562;28;20033;-29
2023/12/29 21:23:10;;;;;;;1.73;1.13;;;;;;;17.36;56.64;96665.47;10408101;28;20037;-29
2023/12/29 21:28:11;;;;;;;1.23;1.00;;;;;;;17.41;56.59;96681.50;10413481;28;20295;-29
2023/12/29 21:33:11;;;;;;;0.83;0.73;;;;;;;17.40;56.83;96674.78;10397006;28;20041;-30
2023/12/29 21:38:11;;;;;;;1.10;1.00;;;;;;;17.44;56.53;96658.72;10392911;28;20296;-30
2023/12/29 21:43:12;;;;;;;1.43;1.13;;;;;;;17.41;56.85;96668.88;10407175;28;20029;-30
2023/12/29 21:48:16;;;;;;;1.60;0.97;;;;;;;17.38;56.74;96662.09;10395131;28;20049;-30
2023/12/29 21:53:17;;;;;;;1.13;0.80;;;;;;;17.44;56.41;96686.56;10399589;28;20288;-30
2023/12/29 21:58:17;;;;;;;0.87;0.83;;;;;;;17.44;56.32;96705.16;10414271;28;20349;-30
2023/12/29 22:03:17;;;;;;;2.17;1.30;;;;;;;17.44;56.69;96699.22;10416567;28;20095;-26
2023/12/29 22:08:18;;;;;;;0.90;0.77;;;;;;;17.44;56.59;96697.56;10404007;28;20036;-29
2023/12/29 22:13:18;;;;;;;1.00;0.83;;;;;;;17.44;56.41;96697.56;10408381;28;20029;-30
2023/12/29 22:18:18;;;;;;;1.00;0.90;;;;;;;17.43;56.43;96698.41;10404719;28;20037;-30
2023/12/29 22:23:19;;;;;;;0.77;0.70;;;;;;;17.41;56.74;96701.75;10406516;28;20033;-30
2023/12/29 22:28:19;;;;;;;0.93;0.50;;;;;;;17.40;56.33;96705.13;10405681;28;20026;-30
2023/12/29 22:33:19;;;;;;;1.00;0.90;;;;;;;17.40;56.71;96712.72;10406173;28;20048;-29
2023/12/29 22:38:20;;;;;;;0.80;0.70;;;;;;;17.40;56.70;96715.25;10405147;28;20051;-30
2023/12/29 22:43:22;;;;;;;0.90;0.70;;;;;;;17.37;56.69;96713.56;10406612;28;20041;-31
2023/12/29 22:48:22;;;;;;;1.40;0.88;;;;;;;17.40;56.83;96705.13;10405657;28;20407;-30
2023/12/29 22:53:22;;;;;;;0.87;0.60;;;;;;;17.39;56.58;96696.69;10398638;28;20047;-30
2023/12/29 22:58:23;;;;;;;0.90;0.60;;;;;;;17.38;56.83;96694.13;10408993;28;20091;-30
2023/12/29 23:03:24;;;;;;;1.77;0.65;;;;;;;17.37;56.82;96702.56;10402768;28;20044;-30
2023/12/29 23:08:24;;;;;;;0.55;0.55;;;;;;;17.38;56.24;96695.00;10403921;28;20531;-30
2023/12/29 23:13:27;;;;;;;2.50;1.00;;;;;;;17.36;55.13;96709.34;10403289;28;20084;-29
2023/12/29 23:18:28;;;;;;;1.52;0.65;;;;;;;17.34;56.41;96702.53;10403838;28;20302;-29